createdAt,value
2022-10-04T00:01:08.629Z,100.00
2022-10-04T00:03:41.955Z,100.00
2022-10-04T00:06:17.980Z,100.00
2022-10-04T00:08:50.658Z,100.00
2022-10-04T00:14:17.378Z,100.00
2022-10-04T00:16:45.444Z,100.00
2022-10-04T00:19:40.908Z,100.00
2022-10-04T00:22:22.723Z,100.00
2022-10-04T00:25:20.970Z,100.00
2022-10-04T00:28:36.424Z,100.00
2022-10-04T00:31:10.313Z,100.00
2022-10-04T00:33:39.358Z,100.00
2022-10-04T00:36:44.659Z,100.00
2022-10-04T00:39:50.969Z,100.00
2022-10-04T00:42:39.601Z,100.00
2022-10-04T00:45:15.321Z,100.00
2022-10-04T00:48:01.849Z,100.00
2022-10-04T00:50:35.617Z,100.00
2022-10-04T00:53:13.562Z,100.00
2022-10-04T00:55:47.897Z,100.00
2022-10-04T00:58:22.001Z,100.00
2022-10-04T01:00:50.709Z,100.00
2022-10-04T01:03:25.192Z,100.00
2022-10-04T01:05:58.084Z,100.00
2022-10-04T01:08:31.207Z,100.00
2022-10-04T01:11:02.422Z,100.00
2022-10-04T01:13:39.495Z,100.00
2022-10-04T01:16:15.409Z,100.00
2022-10-04T01:18:43.522Z,100.00
2022-10-04T01:21:27.016Z,100.00
2022-10-04T01:24:22.130Z,100.00
2022-10-04T01:26:51.757Z,100.00
2022-10-04T01:29:26.316Z,100.00
2022-10-04T01:31:56.119Z,100.00
2022-10-04T01:34:25.206Z,100.00
2022-10-04T01:36:55.519Z,100.00
2022-10-04T01:39:26.728Z,100.00
2022-10-04T01:42:01.611Z,100.00
2022-10-04T01:44:34.241Z,100.00
2022-10-04T01:47:06.531Z,100.00
2022-10-04T01:49:37.665Z,100.00
2022-10-04T01:52:09.798Z,100.00
2022-10-04T01:54:44.370Z,100.00
2022-10-04T01:57:16.458Z,100.00
2022-10-04T01:59:50.760Z,100.00
2022-10-04T02:02:30.249Z,100.00
2022-10-04T02:05:00.504Z,100.00
2022-10-04T02:07:32.802Z,100.00
2022-10-04T02:10:06.095Z,100.00
2022-10-04T02:12:35.594Z,100.00
2022-10-04T02:15:07.765Z,100.00
2022-10-04T02:17:40.792Z,100.00
2022-10-04T02:20:14.878Z,100.00
2022-10-04T02:22:44.194Z,100.00
2022-10-04T02:25:15.102Z,100.00
2022-10-04T02:27:42.833Z,100.00
2022-10-04T02:30:13.472Z,100.00
2022-10-04T02:32:57.597Z,100.00
2022-10-04T02:35:28.142Z,100.00
2022-10-04T02:38:04.140Z,100.00
2022-10-04T02:40:40.649Z,100.00
2022-10-04T02:43:15.242Z,100.00
2022-10-04T02:45:50.458Z,100.00
2022-10-04T02:48:36.735Z,100.00
2022-10-04T02:51:16.902Z,100.00
2022-10-04T02:53:52.396Z,100.00
2022-10-04T02:56:24.449Z,100.00
2022-10-04T02:58:52.922Z,100.00
2022-10-04T03:01:27.675Z,100.00
2022-10-04T03:03:57.881Z,100.00
2022-10-04T03:06:32.243Z,100.00
2022-10-04T03:09:04.080Z,100.00
2022-10-04T03:11:36.581Z,100.00
2022-10-04T03:14:08.924Z,100.00
2022-10-04T03:16:39.459Z,100.00
2022-10-04T03:19:08.996Z,100.00
2022-10-04T03:21:40.682Z,100.00
2022-10-04T03:24:11.688Z,100.00
2022-10-04T03:26:44.389Z,100.00
2022-10-04T03:29:14.890Z,100.00
2022-10-04T03:31:45.761Z,100.00
2022-10-04T03:34:18.715Z,100.00
2022-10-04T03:36:49.177Z,100.00
2022-10-04T03:39:27.685Z,100.00
2022-10-04T03:41:58.532Z,100.00
2022-10-04T03:44:26.697Z,100.00
2022-10-04T03:46:54.323Z,100.00
2022-10-04T03:49:31.314Z,100.00
2022-10-04T03:52:00.577Z,100.00
2022-10-04T03:54:29.359Z,100.00
2022-10-04T03:57:00.238Z,100.00
2022-10-04T03:59:29.094Z,100.00
2022-10-04T04:02:07.018Z,100.00
2022-10-04T04:04:44.013Z,100.00
2022-10-04T04:07:18.320Z,100.00
2022-10-04T04:09:51.841Z,100.00
2022-10-04T04:12:27.069Z,100.00
2022-10-04T04:14:55.435Z,100.00
2022-10-04T04:17:47.927Z,100.00
2022-10-04T04:20:23.148Z,100.00
2022-10-04T04:22:59.255Z,100.00
2022-10-04T04:25:29.449Z,100.00
2022-10-04T04:28:07.056Z,100.00
2022-10-04T04:30:38.513Z,100.00
2022-10-04T04:33:16.642Z,100.00
2022-10-04T04:35:46.745Z,100.00
2022-10-04T04:41:11.739Z,100.00
2022-10-04T04:43:44.569Z,100.00
2022-10-04T04:46:26.999Z,100.00
2022-10-04T04:49:01.256Z,100.00
2022-10-04T04:51:29.731Z,100.00
2022-10-04T04:53:57.979Z,100.00
2022-10-04T04:56:29.498Z,100.00
2022-10-04T04:59:03.167Z,100.00
2022-10-04T05:01:35.243Z,100.00
2022-10-04T05:04:05.096Z,100.00
2022-10-04T05:06:35.072Z,100.00
2022-10-04T05:09:04.161Z,100.00
2022-10-04T05:11:35.526Z,100.00
2022-10-04T05:14:07.519Z,100.00
2022-10-04T05:16:41.411Z,100.00
2022-10-04T05:19:16.960Z,100.00
2022-10-04T05:21:47.780Z,100.00
2022-10-04T05:24:22.714Z,100.00
2022-10-04T05:26:53.243Z,100.00
2022-10-04T05:29:26.756Z,100.00
2022-10-04T05:32:03.502Z,100.00
2022-10-04T05:34:37.054Z,100.00
2022-10-04T05:37:22.443Z,100.00
2022-10-04T05:40:03.857Z,100.00
2022-10-04T05:42:38.437Z,100.00
2022-10-04T05:45:18.355Z,100.00
2022-10-04T05:47:49.328Z,100.00
2022-10-04T05:50:20.180Z,100.00
2022-10-04T05:52:51.440Z,100.00
2022-10-04T05:55:29.535Z,100.00
2022-10-04T05:58:18.454Z,100.00
2022-10-04T06:01:05.706Z,100.00
2022-10-04T06:03:50.230Z,100.00
2022-10-04T06:06:24.751Z,100.00
2022-10-04T06:09:09.254Z,100.00
2022-10-04T06:11:51.267Z,100.00
2022-10-04T06:14:48.215Z,100.00
2022-10-04T06:17:32.516Z,100.00
2022-10-04T06:20:30.284Z,100.00
2022-10-04T06:23:01.680Z,100.00
2022-10-04T06:25:32.735Z,100.00
2022-10-04T06:28:12.417Z,100.00
2022-10-04T06:30:57.936Z,100.00
2022-10-04T06:33:47.442Z,100.00
2022-10-04T06:36:42.990Z,100.00
2022-10-04T06:39:32.662Z,100.00
2022-10-04T06:42:15.180Z,100.00
2022-10-04T06:44:56.062Z,100.00
2022-10-04T06:47:43.618Z,100.00
2022-10-04T06:50:26.434Z,100.00
2022-10-04T06:53:05.395Z,100.00
2022-10-04T06:55:50.671Z,100.00
2022-10-04T06:59:04.551Z,100.00
2022-10-04T07:01:34.271Z,100.00
2022-10-04T07:04:11.504Z,100.00
2022-10-04T07:06:48.052Z,100.00
2022-10-04T07:09:22.838Z,100.00
2022-10-04T07:11:54.638Z,100.00
2022-10-04T07:14:30.871Z,100.00
2022-10-04T07:17:05.149Z,100.00
2022-10-04T07:19:38.193Z,100.00
2022-10-04T07:22:17.883Z,100.00
2022-10-04T07:24:55.799Z,100.00
2022-10-04T07:27:31.010Z,100.00
2022-10-04T07:30:00.144Z,100.00
2022-10-04T07:35:22.002Z,100.00
2022-10-04T07:37:58.634Z,100.00
2022-10-04T07:40:31.303Z,100.00
2022-10-04T07:43:04.733Z,100.00
2022-10-04T07:45:35.064Z,100.00
2022-10-04T07:48:05.347Z,100.00
2022-10-04T07:50:40.069Z,100.00
2022-10-04T07:53:13.016Z,100.00
2022-10-04T07:55:50.960Z,100.00
2022-10-04T07:58:42.082Z,100.00
2022-10-04T08:01:26.902Z,100.00
2022-10-04T08:04:21.185Z,100.00
2022-10-04T08:06:57.896Z,100.00
2022-10-04T08:09:34.853Z,100.00
2022-10-04T08:12:12.421Z,100.00
2022-10-04T08:14:54.363Z,100.00
2022-10-04T08:17:34.800Z,100.00
2022-10-04T08:20:22.000Z,100.00
2022-10-04T08:23:00.690Z,100.00
2022-10-04T08:25:40.211Z,100.00
2022-10-04T08:28:40.174Z,100.00
2022-10-04T08:31:17.928Z,100.00
2022-10-04T08:33:58.613Z,100.00
2022-10-04T08:36:40.629Z,100.00
2022-10-04T08:39:23.044Z,100.00
2022-10-04T08:42:35.474Z,100.00
2022-10-04T08:45:37.844Z,100.00
2022-10-04T08:48:34.145Z,100.00
2022-10-04T08:51:27.531Z,100.00
2022-10-04T08:54:22.367Z,100.00
2022-10-04T08:57:05.336Z,100.00
2022-10-04T08:59:57.933Z,100.00
2022-10-04T09:02:48.532Z,100.00
2022-10-04T09:05:33.211Z,100.00
2022-10-04T09:08:41.219Z,100.00
2022-10-04T09:11:42.777Z,100.00
2022-10-04T09:14:30.745Z,100.00
2022-10-04T09:17:21.804Z,100.00
2022-10-04T09:20:05.019Z,100.00
2022-10-04T09:22:50.034Z,100.00
2022-10-04T09:25:36.186Z,100.00
2022-10-04T09:28:39.208Z,100.00
2022-10-04T09:31:24.685Z,100.00
2022-10-04T09:34:11.968Z,100.00
2022-10-04T09:37:02.306Z,100.00
2022-10-04T09:40:00.399Z,100.00
2022-10-04T09:42:45.418Z,100.00
2022-10-04T09:45:28.304Z,100.00
2022-10-04T09:48:25.047Z,100.00
2022-10-04T09:51:20.408Z,100.00
2022-10-04T09:54:00.009Z,100.00
2022-10-04T09:56:59.146Z,100.00
2022-10-04T09:59:50.424Z,100.00
2022-10-04T10:02:59.724Z,100.00
2022-10-04T10:05:36.222Z,100.00
2022-10-04T10:08:18.884Z,100.00
2022-10-04T10:11:25.126Z,100.00
2022-10-04T10:14:23.254Z,100.00
2022-10-04T10:17:02.442Z,100.00
2022-10-04T10:19:55.027Z,100.00
2022-10-04T10:22:39.542Z,100.00
2022-10-04T10:25:18.669Z,100.00
2022-10-04T10:28:25.970Z,100.00
2022-10-04T10:31:15.294Z,100.00
2022-10-04T10:34:08.247Z,100.00
2022-10-04T10:36:47.406Z,100.00
2022-10-04T10:39:41.858Z,100.00
2022-10-04T10:42:30.978Z,100.00
2022-10-04T10:45:16.491Z,100.00
2022-10-04T10:47:53.990Z,100.00
2022-10-04T10:51:03.327Z,100.00
2022-10-04T10:54:00.128Z,100.00
2022-10-04T10:56:51.544Z,100.00
2022-10-04T11:00:00.592Z,100.00
2022-10-04T11:03:13.037Z,100.00
2022-10-04T11:06:01.882Z,100.00
2022-10-04T11:08:56.968Z,100.00
2022-10-04T11:11:49.887Z,100.00
2022-10-04T11:14:37.979Z,100.00
2022-10-04T11:17:27.472Z,100.00
2022-10-04T11:20:41.345Z,98.00
2022-10-04T11:23:39.059Z,98.26
2022-10-04T11:26:37.636Z,98.80
2022-10-04T11:29:20.267Z,99.35
2022-10-04T11:32:41.700Z,99.08
2022-10-04T11:35:45.981Z,99.73
2022-10-04T11:38:27.845Z,99.17
2022-10-04T11:41:14.635Z,99.71
2022-10-04T11:44:07.592Z,97.01
2022-10-04T11:46:43.570Z,94.89
2022-10-04T11:49:35.640Z,92.59
2022-10-04T11:52:43.122Z,92.04
2022-10-04T11:55:39.269Z,86.40
2022-10-04T11:58:17.875Z,85.09
2022-10-04T12:01:20.430Z,83.73
2022-10-04T12:04:08.789Z,80.25
2022-10-04T12:06:57.532Z,78.67
2022-10-04T12:09:35.243Z,78.44
2022-10-04T12:12:38.111Z,76.12
2022-10-04T12:15:40.647Z,76.37
2022-10-04T12:18:28.536Z,71.75
2022-10-04T12:21:12.508Z,70.06
2022-10-04T12:24:14.535Z,69.83
2022-10-04T12:27:02.904Z,69.75
2022-10-04T12:29:45.378Z,69.72
2022-10-04T12:32:17.718Z,70.69
2022-10-04T12:34:52.724Z,69.74
2022-10-04T12:37:30.791Z,71.21
2022-10-04T12:40:22.808Z,66.41
2022-10-04T12:42:58.672Z,68.22
2022-10-04T12:45:43.324Z,66.77
2022-10-04T12:48:25.710Z,64.36
2022-10-04T12:51:02.888Z,65.41
2022-10-04T12:53:43.307Z,63.15
2022-10-04T12:56:33.147Z,63.16
2022-10-04T12:59:11.578Z,62.92
2022-10-04T13:01:51.291Z,60.66
2022-10-04T13:04:31.080Z,61.40
2022-10-04T13:07:15.783Z,62.19
2022-10-04T13:10:19.323Z,62.62
2022-10-04T13:13:15.497Z,61.87
2022-10-04T13:18:48.482Z,60.96
2022-10-04T13:21:23.648Z,62.54
2022-10-04T13:24:04.579Z,62.78
2022-10-04T13:26:44.127Z,61.85
2022-10-04T13:29:23.893Z,59.79
2022-10-04T13:31:57.191Z,58.32
2022-10-04T13:34:35.757Z,58.07
2022-10-04T13:37:21.866Z,59.21
2022-10-04T13:40:22.715Z,58.31
2022-10-04T13:43:06.840Z,56.90
2022-10-04T13:45:45.169Z,58.34
2022-10-04T13:48:30.614Z,59.79
2022-10-04T13:51:10.842Z,62.26
2022-10-04T13:54:09.972Z,63.67
2022-10-04T13:56:54.642Z,66.51
2022-10-04T13:59:34.550Z,67.33
2022-10-04T14:02:24.860Z,68.02
2022-10-04T14:05:29.654Z,69.13
2022-10-04T14:08:37.501Z,70.57
2022-10-04T14:11:37.254Z,72.30
2022-10-04T14:14:23.538Z,73.29
2022-10-04T14:17:15.083Z,75.20
2022-10-04T14:20:10.623Z,75.71
2022-10-04T14:23:09.094Z,76.44
2022-10-04T14:25:55.990Z,77.51
2022-10-04T14:28:52.608Z,78.34
2022-10-04T14:31:37.084Z,80.09
2022-10-04T14:34:34.307Z,79.30
2022-10-04T14:37:27.804Z,79.77
2022-10-04T14:40:21.071Z,80.26
2022-10-04T14:43:14.727Z,79.68
2022-10-04T14:45:53.498Z,80.94
2022-10-04T14:48:58.469Z,81.14
2022-10-04T14:51:40.786Z,82.38
2022-10-04T14:54:13.770Z,81.67
2022-10-04T14:56:52.301Z,82.31
2022-10-04T14:59:42.902Z,82.24
2022-10-04T15:02:36.119Z,82.59
2022-10-04T15:05:31.740Z,82.61
2022-10-04T15:08:25.048Z,83.09
2022-10-04T15:10:55.780Z,83.16
2022-10-04T15:13:31.815Z,82.82
2022-10-04T15:16:14.000Z,83.35
2022-10-04T15:18:53.458Z,82.33
2022-10-04T15:21:41.431Z,80.83
2022-10-04T15:24:25.505Z,81.71
2022-10-04T15:27:32.793Z,80.61
2022-10-04T15:30:12.480Z,81.20
2022-10-04T15:32:50.374Z,80.96
2022-10-04T15:35:27.444Z,81.52
2022-10-04T15:38:01.773Z,82.41
2022-10-04T15:40:38.225Z,82.76
2022-10-04T15:43:25.977Z,82.17
2022-10-04T15:46:04.679Z,81.79
2022-10-04T15:48:50.049Z,82.55
2022-10-04T15:51:36.729Z,83.11
2022-10-04T15:55:02.151Z,83.53
2022-10-04T15:57:41.888Z,84.84
2022-10-04T16:00:15.533Z,84.68
2022-10-04T16:03:10.682Z,85.04
2022-10-04T16:05:45.009Z,85.63
2022-10-04T16:08:36.993Z,86.00
2022-10-04T16:11:17.620Z,86.70
2022-10-04T16:13:58.352Z,87.10
2022-10-04T16:16:50.495Z,88.12
2022-10-04T16:19:31.460Z,89.32
2022-10-04T16:22:11.111Z,89.57
2022-10-04T16:24:48.878Z,88.76
2022-10-04T16:27:49.486Z,89.31
2022-10-04T16:30:27.614Z,90.17
2022-10-04T16:33:33.454Z,90.81
2022-10-04T16:36:12.558Z,91.09
2022-10-04T16:39:07.466Z,91.48
2022-10-04T16:41:44.301Z,92.04
2022-10-04T16:44:30.032Z,92.97
2022-10-04T16:47:03.242Z,93.61
2022-10-04T16:49:41.088Z,93.73
2022-10-04T16:52:50.798Z,94.53
2022-10-04T16:55:30.876Z,94.86
2022-10-04T16:58:41.431Z,95.42
2022-10-04T17:01:55.450Z,96.14
2022-10-04T17:04:44.593Z,96.21
2022-10-04T17:07:23.183Z,96.82
2022-10-04T17:10:02.873Z,97.29
2022-10-04T17:12:37.223Z,97.56
2022-10-04T17:15:27.440Z,98.10
2022-10-04T17:18:06.032Z,98.36
2022-10-04T17:20:50.732Z,98.17
2022-10-04T17:23:34.614Z,98.67
2022-10-04T17:26:14.924Z,100.00
2022-10-04T17:28:53.184Z,99.71
2022-10-04T17:31:31.676Z,99.83
2022-10-04T17:34:10.245Z,100.00
2022-10-04T17:36:45.969Z,99.29
2022-10-04T17:39:35.508Z,99.53
2022-10-04T17:42:25.293Z,100.00
2022-10-04T17:45:21.955Z,100.00
2022-10-04T17:48:17.461Z,100.00
2022-10-04T17:51:13.802Z,100.00
2022-10-04T17:54:05.533Z,100.00
2022-10-04T17:56:37.680Z,100.00
2022-10-04T17:59:12.015Z,100.00
2022-10-04T18:01:43.893Z,100.00
2022-10-04T18:04:22.158Z,100.00
2022-10-04T18:06:57.039Z,100.00
2022-10-04T18:09:36.330Z,100.00
2022-10-04T18:12:07.401Z,100.00
2022-10-04T18:14:58.469Z,100.00
2022-10-04T18:17:33.042Z,100.00
2022-10-04T18:20:26.448Z,100.00
2022-10-04T18:23:01.248Z,100.00
2022-10-04T18:25:32.086Z,100.00
2022-10-04T18:28:12.375Z,100.00
2022-10-04T18:30:58.806Z,100.00
2022-10-04T18:33:32.454Z,100.00
2022-10-04T18:36:07.243Z,100.00
2022-10-04T18:38:36.108Z,100.00
2022-10-04T18:41:18.904Z,100.00
2022-10-04T18:43:52.962Z,100.00
2022-10-04T18:46:22.893Z,100.00
2022-10-04T18:48:56.623Z,100.00
2022-10-04T18:51:28.482Z,100.00
2022-10-04T18:54:10.419Z,100.00
2022-10-04T18:56:48.130Z,100.00
2022-10-04T18:59:46.839Z,100.00
2022-10-04T19:02:26.166Z,100.00
2022-10-04T19:05:02.251Z,100.00
2022-10-04T19:07:38.758Z,100.00
2022-10-04T19:10:19.999Z,100.00
2022-10-04T19:12:58.849Z,100.00
2022-10-04T19:15:37.598Z,100.00
2022-10-04T19:18:20.988Z,100.00
2022-10-04T19:20:55.697Z,100.00
2022-10-04T19:23:37.448Z,100.00
2022-10-04T19:26:30.948Z,100.00
2022-10-04T19:29:19.284Z,100.00
2022-10-04T19:31:53.469Z,100.00
2022-10-04T19:34:36.107Z,100.00
2022-10-04T19:37:11.762Z,100.00
2022-10-04T19:39:48.416Z,100.00
2022-10-04T19:42:20.211Z,100.00
2022-10-04T19:45:06.858Z,100.00
2022-10-04T19:47:43.326Z,100.00
2022-10-04T19:50:21.085Z,100.00
2022-10-04T19:52:53.494Z,100.00
2022-10-04T19:55:26.245Z,100.00
2022-10-04T19:58:07.003Z,100.00
2022-10-04T20:00:37.472Z,100.00
2022-10-04T20:03:11.605Z,100.00
2022-10-04T20:05:44.299Z,100.00
2022-10-04T20:08:13.582Z,100.00
2022-10-04T20:10:42.840Z,100.00
2022-10-04T20:13:23.478Z,100.00
2022-10-04T20:15:54.726Z,100.00
2022-10-04T20:19:10.777Z,100.00
2022-10-04T20:21:38.926Z,100.00
2022-10-04T20:24:16.842Z,100.00
2022-10-04T20:27:03.363Z,100.00
2022-10-04T20:30:04.438Z,100.00
2022-10-04T20:32:56.614Z,100.00
2022-10-04T20:36:08.370Z,100.00
2022-10-04T20:38:59.414Z,100.00
2022-10-04T20:42:23.348Z,100.00
2022-10-04T20:44:55.378Z,100.00
2022-10-04T20:47:38.058Z,100.00
2022-10-04T20:50:27.073Z,100.00
2022-10-04T20:52:58.783Z,100.00
2022-10-04T20:55:29.399Z,100.00
2022-10-04T20:57:59.381Z,100.00
2022-10-04T21:00:29.125Z,100.00
2022-10-04T21:03:19.213Z,100.00
2022-10-04T21:06:19.664Z,100.00
2022-10-04T21:08:49.868Z,100.00
2022-10-04T21:11:21.898Z,100.00
2022-10-04T21:13:52.987Z,100.00
2022-10-04T21:16:48.115Z,100.00
2022-10-04T21:19:50.193Z,100.00
2022-10-04T21:22:38.971Z,100.00
2022-10-04T21:25:29.178Z,100.00
2022-10-04T21:28:24.600Z,100.00
2022-10-04T21:30:57.839Z,100.00
2022-10-04T21:33:27.353Z,100.00
2022-10-04T21:35:55.680Z,100.00
2022-10-04T21:38:24.953Z,100.00
2022-10-04T21:40:52.801Z,100.00
2022-10-04T21:43:20.971Z,100.00
2022-10-04T21:45:49.015Z,100.00
2022-10-04T21:48:17.464Z,100.00
2022-10-04T21:50:45.587Z,100.00
2022-10-04T21:53:13.755Z,100.00
2022-10-04T21:55:42.935Z,100.00
2022-10-04T21:58:10.768Z,100.00
2022-10-04T22:00:40.225Z,100.00
2022-10-04T22:03:08.500Z,100.00
2022-10-04T22:05:36.208Z,100.00
2022-10-04T22:08:03.928Z,100.00
2022-10-04T22:10:31.765Z,100.00
2022-10-04T22:13:00.755Z,100.00
2022-10-04T22:15:29.651Z,100.00
2022-10-04T22:17:57.725Z,100.00
2022-10-04T22:20:26.090Z,100.00
2022-10-04T22:22:57.541Z,100.00
2022-10-04T22:25:28.320Z,100.00
2022-10-04T22:27:56.094Z,100.00
2022-10-04T22:30:28.304Z,100.00
2022-10-04T22:32:58.151Z,100.00
2022-10-04T22:35:26.070Z,100.00
2022-10-04T22:37:55.758Z,100.00
2022-10-04T22:40:25.561Z,100.00
2022-10-04T22:42:55.335Z,100.00
2022-10-04T22:45:27.347Z,100.00
2022-10-04T22:47:58.471Z,100.00
2022-10-04T22:50:30.666Z,100.00
2022-10-04T22:53:02.826Z,100.00
2022-10-04T22:55:30.618Z,100.00
2022-10-04T22:57:58.378Z,100.00
2022-10-04T23:00:27.406Z,100.00
2022-10-04T23:02:55.905Z,100.00
2022-10-04T23:05:23.595Z,100.00
2022-10-04T23:07:51.294Z,100.00
2022-10-04T23:10:20.480Z,100.00
2022-10-04T23:12:49.559Z,100.00
2022-10-04T23:15:19.699Z,100.00
2022-10-04T23:17:55.079Z,100.00
2022-10-04T23:20:23.445Z,100.00
2022-10-04T23:22:53.789Z,100.00
2022-10-04T23:25:24.399Z,100.00
2022-10-04T23:27:52.410Z,100.00
2022-10-04T23:30:22.565Z,100.00
2022-10-04T23:32:54.090Z,100.00
2022-10-04T23:35:25.477Z,100.00
2022-10-04T23:37:54.260Z,100.00
2022-10-04T23:40:24.302Z,100.00
2022-10-04T23:42:56.381Z,100.00
2022-10-04T23:45:26.050Z,100.00
2022-10-04T23:47:57.286Z,100.00
2022-10-04T23:50:27.818Z,100.00
2022-10-04T23:53:02.188Z,100.00
2022-10-04T23:55:33.194Z,100.00
2022-10-04T23:58:01.070Z,100.00
